sensor_id;sensor_type;location;lat;lon;timestamp;P1;durP1;ratioP1;P2;durP2;ratioP2
56171;SDS011;42052;41.634;-0.946;2023-03-19T00:01:42;0.88;;;0.50;;
56171;SDS011;42052;41.634;-0.946;2023-03-19T00:04:28;0.50;;;0.50;;
56171;SDS011;42052;41.634;-0.946;2023-03-19T00:07:14;0.50;;;0.50;;
56171;SDS011;42052;41.634;-0.946;2023-03-19T00:10:01;0.60;;;0.43;;
56171;SDS011;42052;41.634;-0.946;2023-03-19T00:12:47;2.38;;;0.47;;
56171;SDS011;42052;41.634;-0.946;2023-03-19T00:15:33;0.88;;;0.40;;
56171;SDS011;42052;41.634;-0.946;2023-03-19T00:18:19;0.88;;;0.45;;
56171;SDS011;42052;41.634;-0.946;2023-03-19T00:21:06;2.70;;;0.40;;
56171;SDS011;42052;41.634;-0.946;2023-03-19T00:23:52;0.82;;;0.40;;
56171;SDS011;42052;41.634;-0.946;2023-03-19T00:26:38;1.45;;;0.38;;
56171;SDS011;42052;41.634;-0.946;2023-03-19T00:29:25;2.88;;;0.50;;
56171;SDS011;42052;41.634;-0.946;2023-03-19T00:32:11;2.25;;;0.40;;
56171;SDS011;42052;41.634;-0.946;2023-03-19T00:34:58;0.70;;;0.40;;
56171;SDS011;42052;41.634;-0.946;2023-03-19T00:37:45;1.38;;;0.47;;
56171;SDS011;42052;41.634;-0.946;2023-03-19T00:40:31;0.52;;;0.40;;
56171;SDS011;42052;41.634;-0.946;2023-03-19T00:43:18;2.08;;;0.40;;
56171;SDS011;42052;41.634;-0.946;2023-03-19T00:46:04;1.48;;;0.40;;
56171;SDS011;42052;41.634;-0.946;2023-03-19T00:48:51;0.60;;;0.40;;
56171;SDS011;42052;41.634;-0.946;2023-03-19T00:51:39;0.60;;;0.40;;
56171;SDS011;42052;41.634;-0.946;2023-03-19T00:54:28;0.82;;;0.50;;
56171;SDS011;42052;41.634;-0.946;2023-03-19T00:57:16;0.40;;;0.40;;
56171;SDS011;42052;41.634;-0.946;2023-03-19T01:00:03;0.82;;;0.40;;
56171;SDS011;42052;41.634;-0.946;2023-03-19T01:02:49;1.15;;;0.50;;
56171;SDS011;42052;41.634;-0.946;2023-03-19T01:05:36;0.65;;;0.30;;
56171;SDS011;42052;41.634;-0.946;2023-03-19T01:08:22;0.77;;;0.45;;
56171;SDS011;42052;41.634;-0.946;2023-03-19T01:11:10;0.55;;;0.52;;
56171;SDS011;42052;41.634;-0.946;2023-03-19T01:13:59;1.05;;;0.40;;
56171;SDS011;42052;41.634;-0.946;2023-03-19T01:16:45;1.08;;;0.50;;
56171;SDS011;42052;41.634;-0.946;2023-03-19T01:19:32;0.57;;;0.43;;
56171;SDS011;42052;41.634;-0.946;2023-03-19T01:22:18;0.45;;;0.45;;
56171;SDS011;42052;41.634;-0.946;2023-03-19T01:25:04;0.60;;;0.40;;
56171;SDS011;42052;41.634;-0.946;2023-03-19T01:27:51;0.45;;;0.40;;
56171;SDS011;42052;41.634;-0.946;2023-03-19T01:30:38;0.75;;;0.40;;
56171;SDS011;42052;41.634;-0.946;2023-03-19T01:33:25;0.95;;;0.45;;
56171;SDS011;42052;41.634;-0.946;2023-03-19T01:36:12;0.70;;;0.40;;
56171;SDS011;42052;41.634;-0.946;2023-03-19T01:38:58;1.33;;;0.50;;
56171;SDS011;42052;41.634;-0.946;2023-03-19T01:41:44;1.73;;;0.50;;
56171;SDS011;42052;41.634;-0.946;2023-03-19T01:44:32;0.77;;;0.40;;
56171;SDS011;42052;41.634;-0.946;2023-03-19T01:47:33;0.57;;;0.50;;
56171;SDS011;42052;41.634;-0.946;2023-03-19T01:50:26;1.08;;;0.45;;
56171;SDS011;42052;41.634;-0.946;2023-03-19T01:53:26;1.70;;;0.40;;
56171;SDS011;42052;41.634;-0.946;2023-03-19T01:56:16;0.70;;;0.40;;
56171;SDS011;42052;41.634;-0.946;2023-03-19T01:59:08;0.68;;;0.35;;
56171;SDS011;42052;41.634;-0.946;2023-03-19T02:01:57;1.08;;;0.50;;
56171;SDS011;42052;41.634;-0.946;2023-03-19T02:04:50;0.50;;;0.30;;
56171;SDS011;42052;41.634;-0.946;2023-03-19T02:07:41;1.85;;;0.47;;
56171;SDS011;42052;41.634;-0.946;2023-03-19T02:10:29;0.80;;;0.32;;
56171;SDS011;42052;41.634;-0.946;2023-03-19T02:13:16;1.95;;;0.50;;
56171;SDS011;42052;41.634;-0.946;2023-03-19T02:16:03;1.05;;;0.40;;
56171;SDS011;42052;41.634;-0.946;2023-03-19T02:18:50;0.75;;;0.30;;
56171;SDS011;42052;41.634;-0.946;2023-03-19T02:21:38;0.70;;;0.40;;
56171;SDS011;42052;41.634;-0.946;2023-03-19T02:24:25;1.25;;;0.50;;
56171;SDS011;42052;41.634;-0.946;2023-03-19T02:30:19;0.80;;;0.50;;
56171;SDS011;42052;41.634;-0.946;2023-03-19T02:33:12;1.30;;;0.50;;
56171;SDS011;42052;41.634;-0.946;2023-03-19T02:35:59;0.55;;;0.30;;
56171;SDS011;42052;41.634;-0.946;2023-03-19T02:38:47;0.60;;;0.40;;
56171;SDS011;42052;41.634;-0.946;2023-03-19T02:41:34;1.45;;;0.50;;
56171;SDS011;42052;41.634;-0.946;2023-03-19T02:44:24;0.77;;;0.40;;
56171;SDS011;42052;41.634;-0.946;2023-03-19T02:47:10;0.88;;;0.40;;
56171;SDS011;42052;41.634;-0.946;2023-03-19T02:49:57;0.43;;;0.40;;
56171;SDS011;42052;41.634;-0.946;2023-03-19T02:52:43;1.80;;;0.30;;
56171;SDS011;42052;41.634;-0.946;2023-03-19T02:55:29;1.40;;;0.40;;
56171;SDS011;42052;41.634;-0.946;2023-03-19T02:58:15;0.50;;;0.40;;
56171;SDS011;42052;41.634;-0.946;2023-03-19T03:01:02;0.82;;;0.30;;
56171;SDS011;42052;41.634;-0.946;2023-03-19T03:03:48;0.60;;;0.40;;
56171;SDS011;42052;41.634;-0.946;2023-03-19T03:06:34;0.85;;;0.50;;
56171;SDS011;42052;41.634;-0.946;2023-03-19T03:09:21;0.68;;;0.50;;
56171;SDS011;42052;41.634;-0.946;2023-03-19T03:12:08;0.85;;;0.43;;
56171;SDS011;42052;41.634;-0.946;2023-03-19T03:14:54;1.13;;;0.40;;
56171;SDS011;42052;41.634;-0.946;2023-03-19T03:17:41;1.05;;;0.30;;
56171;SDS011;42052;41.634;-0.946;2023-03-19T03:20:29;0.82;;;0.30;;
56171;SDS011;42052;41.634;-0.946;2023-03-19T03:23:15;0.93;;;0.50;;
56171;SDS011;42052;41.634;-0.946;2023-03-19T03:26:02;0.63;;;0.30;;
56171;SDS011;42052;41.634;-0.946;2023-03-19T03:28:48;1.00;;;0.50;;
56171;SDS011;42052;41.634;-0.946;2023-03-19T03:31:35;0.82;;;0.40;;
56171;SDS011;42052;41.634;-0.946;2023-03-19T03:34:21;0.30;;;0.30;;
56171;SDS011;42052;41.634;-0.946;2023-03-19T03:37:07;0.65;;;0.32;;
56171;SDS011;42052;41.634;-0.946;2023-03-19T03:39:54;1.42;;;0.40;;
56171;SDS011;42052;41.634;-0.946;2023-03-19T03:42:40;0.70;;;0.38;;
56171;SDS011;42052;41.634;-0.946;2023-03-19T03:45:27;0.85;;;0.43;;
56171;SDS011;42052;41.634;-0.946;2023-03-19T03:48:13;1.30;;;0.45;;
56171;SDS011;42052;41.634;-0.946;2023-03-19T03:51:00;1.40;;;0.40;;
56171;SDS011;42052;41.634;-0.946;2023-03-19T03:53:47;1.05;;;0.45;;
56171;SDS011;42052;41.634;-0.946;2023-03-19T03:56:33;0.88;;;0.40;;
56171;SDS011;42052;41.634;-0.946;2023-03-19T03:59:20;0.50;;;0.22;;
56171;SDS011;42052;41.634;-0.946;2023-03-19T04:02:06;0.40;;;0.30;;
56171;SDS011;42052;41.634;-0.946;2023-03-19T04:04:52;0.52;;;0.35;;
56171;SDS011;42052;41.634;-0.946;2023-03-19T04:07:39;0.73;;;0.30;;
56171;SDS011;42052;41.634;-0.946;2023-03-19T04:10:25;0.65;;;0.30;;
56171;SDS011;42052;41.634;-0.946;2023-03-19T04:13:12;0.77;;;0.30;;
56171;SDS011;42052;41.634;-0.946;2023-03-19T04:15:58;0.60;;;0.30;;
56171;SDS011;42052;41.634;-0.946;2023-03-19T04:18:44;0.68;;;0.28;;
56171;SDS011;42052;41.634;-0.946;2023-03-19T04:21:30;0.70;;;0.40;;
56171;SDS011;42052;41.634;-0.946;2023-03-19T04:24:17;2.78;;;0.40;;
56171;SDS011;42052;41.634;-0.946;2023-03-19T04:27:03;0.60;;;0.22;;
56171;SDS011;42052;41.634;-0.946;2023-03-19T04:29:51;0.60;;;0.30;;
56171;SDS011;42052;41.634;-0.946;2023-03-19T04:32:37;1.20;;;0.30;;
56171;SDS011;42052;41.634;-0.946;2023-03-19T04:35:23;0.47;;;0.30;;
56171;SDS011;42052;41.634;-0.946;2023-03-19T04:38:10;0.28;;;0.20;;
56171;SDS011;42052;41.634;-0.946;2023-03-19T04:40:56;0.63;;;0.32;;
56171;SDS011;42052;41.634;-0.946;2023-03-19T04:43:43;0.75;;;0.40;;
56171;SDS011;42052;41.634;-0.946;2023-03-19T04:46:29;0.57;;;0.30;;
56171;SDS011;42052;41.634;-0.946;2023-03-19T04:49:15;1.10;;;0.30;;
56171;SDS011;42052;41.634;-0.946;2023-03-19T04:52:02;0.40;;;0.32;;
56171;SDS011;42052;41.634;-0.946;2023-03-19T04:54:48;0.57;;;0.30;;
56171;SDS011;42052;41.634;-0.946;2023-03-19T04:57:35;0.55;;;0.30;;
56171;SDS011;42052;41.634;-0.946;2023-03-19T05:00:21;0.90;;;0.30;;
56171;SDS011;42052;41.634;-0.946;2023-03-19T05:03:07;0.25;;;0.13;;
56171;SDS011;42052;41.634;-0.946;2023-03-19T05:05:53;0.70;;;0.30;;
56171;SDS011;42052;41.634;-0.946;2023-03-19T05:08:39;0.20;;;0.20;;
56171;SDS011;42052;41.634;-0.946;2023-03-19T05:11:25;0.60;;;0.30;;
56171;SDS011;42052;41.634;-0.946;2023-03-19T05:14:11;0.50;;;0.30;;
56171;SDS011;42052;41.634;-0.946;2023-03-19T05:16:58;0.63;;;0.28;;
56171;SDS011;42052;41.634;-0.946;2023-03-19T05:19:44;0.95;;;0.30;;
56171;SDS011;42052;41.634;-0.946;2023-03-19T05:22:30;0.20;;;0.20;;
56171;SDS011;42052;41.634;-0.946;2023-03-19T05:25:16;0.25;;;0.20;;
56171;SDS011;42052;41.634;-0.946;2023-03-19T05:28:03;1.00;;;0.40;;
56171;SDS011;42052;41.634;-0.946;2023-03-19T05:30:49;0.50;;;0.28;;
56171;SDS011;42052;41.634;-0.946;2023-03-19T05:33:36;0.40;;;0.20;;
56171;SDS011;42052;41.634;-0.946;2023-03-19T05:36:22;0.25;;;0.20;;
56171;SDS011;42052;41.634;-0.946;2023-03-19T05:39:09;0.20;;;0.20;;
56171;SDS011;42052;41.634;-0.946;2023-03-19T05:41:55;0.30;;;0.20;;
56171;SDS011;42052;41.634;-0.946;2023-03-19T05:44:41;0.45;;;0.35;;
56171;SDS011;42052;41.634;-0.946;2023-03-19T05:47:27;0.20;;;0.20;;
56171;SDS011;42052;41.634;-0.946;2023-03-19T05:50:13;1.67;;;0.30;;
56171;SDS011;42052;41.634;-0.946;2023-03-19T05:52:59;0.35;;;0.30;;
56171;SDS011;42052;41.634;-0.946;2023-03-19T05:55:46;0.40;;;0.20;;
56171;SDS011;42052;41.634;-0.946;2023-03-19T05:58:32;0.85;;;0.40;;
56171;SDS011;42052;41.634;-0.946;2023-03-19T06:01:18;0.30;;;0.30;;
56171;SDS011;42052;41.634;-0.946;2023-03-19T06:04:05;0.25;;;0.20;;
56171;SDS011;42052;41.634;-0.946;2023-03-19T06:06:51;0.35;;;0.30;;
56171;SDS011;42052;41.634;-0.946;2023-03-19T06:09:37;2.70;;;0.30;;
56171;SDS011;42052;41.634;-0.946;2023-03-19T06:12:24;0.30;;;0.20;;
56171;SDS011;42052;41.634;-0.946;2023-03-19T06:15:10;0.82;;;0.30;;
56171;SDS011;42052;41.634;-0.946;2023-03-19T06:17:56;0.50;;;0.30;;
56171;SDS011;42052;41.634;-0.946;2023-03-19T06:20:42;0.45;;;0.22;;
56171;SDS011;42052;41.634;-0.946;2023-03-19T06:23:30;0.22;;;0.20;;
56171;SDS011;42052;41.634;-0.946;2023-03-19T06:26:16;2.38;;;0.30;;
56171;SDS011;42052;41.634;-0.946;2023-03-19T06:29:02;0.40;;;0.30;;
56171;SDS011;42052;41.634;-0.946;2023-03-19T06:31:49;0.60;;;0.30;;
56171;SDS011;42052;41.634;-0.946;2023-03-19T06:34:36;0.20;;;0.15;;
56171;SDS011;42052;41.634;-0.946;2023-03-19T06:37:22;0.35;;;0.20;;
56171;SDS011;42052;41.634;-0.946;2023-03-19T06:40:08;0.90;;;0.38;;
56171;SDS011;42052;41.634;-0.946;2023-03-19T06:42:55;0.50;;;0.28;;
56171;SDS011;42052;41.634;-0.946;2023-03-19T06:45:41;0.50;;;0.35;;
56171;SDS011;42052;41.634;-0.946;2023-03-19T06:48:27;0.50;;;0.30;;
56171;SDS011;42052;41.634;-0.946;2023-03-19T06:51:13;0.98;;;0.28;;
56171;SDS011;42052;41.634;-0.946;2023-03-19T06:53:59;0.65;;;0.30;;
56171;SDS011;42052;41.634;-0.946;2023-03-19T06:56:45;0.85;;;0.40;;
56171;SDS011;42052;41.634;-0.946;2023-03-19T06:59:33;0.68;;;0.20;;
56171;SDS011;42052;41.634;-0.946;2023-03-19T07:02:19;1.08;;;0.40;;
56171;SDS011;42052;41.634;-0.946;2023-03-19T07:05:05;1.00;;;0.30;;
56171;SDS011;42052;41.634;-0.946;2023-03-19T07:07:51;0.30;;;0.20;;
56171;SDS011;42052;41.634;-0.946;2023-03-19T07:10:37;0.47;;;0.30;;
56171;SDS011;42052;41.634;-0.946;2023-03-19T07:13:24;0.50;;;0.30;;
56171;SDS011;42052;41.634;-0.946;2023-03-19T07:16:10;0.93;;;0.30;;
56171;SDS011;42052;41.634;-0.946;2023-03-19T07:18:56;0.30;;;0.28;;
56171;SDS011;42052;41.634;-0.946;2023-03-19T07:21:44;1.08;;;0.40;;
56171;SDS011;42052;41.634;-0.946;2023-03-19T07:24:31;0.10;;;0.10;;
56171;SDS011;42052;41.634;-0.946;2023-03-19T07:27:17;0.82;;;0.38;;
56171;SDS011;42052;41.634;-0.946;2023-03-19T07:30:03;0.88;;;0.35;;
56171;SDS011;42052;41.634;-0.946;2023-03-19T07:32:50;0.70;;;0.32;;
56171;SDS011;42052;41.634;-0.946;2023-03-19T07:35:36;0.40;;;0.30;;
56171;SDS011;42052;41.634;-0.946;2023-03-19T07:38:23;1.17;;;0.20;;
56171;SDS011;42052;41.634;-0.946;2023-03-19T07:41:09;0.20;;;0.20;;
56171;SDS011;42052;41.634;-0.946;2023-03-19T07:43:55;0.38;;;0.30;;
56171;SDS011;42052;41.634;-0.946;2023-03-19T07:46:41;0.45;;;0.30;;
56171;SDS011;42052;41.634;-0.946;2023-03-19T07:49:27;1.35;;;0.30;;
56171;SDS011;42052;41.634;-0.946;2023-03-19T07:52:13;0.20;;;0.20;;
56171;SDS011;42052;41.634;-0.946;2023-03-19T07:55:00;1.08;;;0.20;;
56171;SDS011;42052;41.634;-0.946;2023-03-19T07:57:46;0.70;;;0.30;;
56171;SDS011;42052;41.634;-0.946;2023-03-19T08:00:32;0.30;;;0.20;;
56171;SDS011;42052;41.634;-0.946;2023-03-19T08:03:18;1.30;;;0.30;;
56171;SDS011;42052;41.634;-0.946;2023-03-19T08:06:05;0.20;;;0.20;;
56171;SDS011;42052;41.634;-0.946;2023-03-19T08:08:51;1.50;;;0.30;;
56171;SDS011;42052;41.634;-0.946;2023-03-19T08:11:37;1.52;;;0.30;;
56171;SDS011;42052;41.634;-0.946;2023-03-19T08:14:23;0.77;;;0.20;;
56171;SDS011;42052;41.634;-0.946;2023-03-19T08:17:09;1.80;;;0.40;;
56171;SDS011;42052;41.634;-0.946;2023-03-19T08:19:56;2.30;;;0.20;;
56171;SDS011;42052;41.634;-0.946;2023-03-19T08:22:42;0.25;;;0.17;;
56171;SDS011;42052;41.634;-0.946;2023-03-19T08:25:28;0.57;;;0.30;;
56171;SDS011;42052;41.634;-0.946;2023-03-19T08:28:16;0.60;;;0.28;;
56171;SDS011;42052;41.634;-0.946;2023-03-19T08:31:06;0.68;;;0.20;;
56171;SDS011;42052;41.634;-0.946;2023-03-19T08:33:54;2.03;;;0.25;;
56171;SDS011;42052;41.634;-0.946;2023-03-19T08:36:44;0.40;;;0.20;;
56171;SDS011;42052;41.634;-0.946;2023-03-19T08:39:30;0.47;;;0.30;;
56171;SDS011;42052;41.634;-0.946;2023-03-19T08:42:17;0.25;;;0.20;;
56171;SDS011;42052;41.634;-0.946;2023-03-19T08:45:04;0.63;;;0.30;;
56171;SDS011;42052;41.634;-0.946;2023-03-19T08:47:50;0.77;;;0.30;;
56171;SDS011;42052;41.634;-0.946;2023-03-19T08:50:36;0.40;;;0.28;;
56171;SDS011;42052;41.634;-0.946;2023-03-19T08:53:23;1.05;;;0.50;;
56171;SDS011;42052;41.634;-0.946;2023-03-19T08:56:09;2.40;;;0.40;;
56171;SDS011;42052;41.634;-0.946;2023-03-19T08:58:56;1.38;;;0.43;;
56171;SDS011;42052;41.634;-0.946;2023-03-19T09:01:42;0.93;;;0.30;;
56171;SDS011;42052;41.634;-0.946;2023-03-19T09:04:28;1.77;;;0.30;;
56171;SDS011;42052;41.634;-0.946;2023-03-19T09:07:14;1.00;;;0.28;;
56171;SDS011;42052;41.634;-0.946;2023-03-19T09:10:01;1.15;;;0.30;;
56171;SDS011;42052;41.634;-0.946;2023-03-19T09:12:47;1.38;;;0.30;;
56171;SDS011;42052;41.634;-0.946;2023-03-19T09:15:33;1.90;;;0.35;;
56171;SDS011;42052;41.634;-0.946;2023-03-19T09:18:19;2.53;;;0.30;;
56171;SDS011;42052;41.634;-0.946;2023-03-19T09:21:08;0.82;;;0.30;;
56171;SDS011;42052;41.634;-0.946;2023-03-19T09:23:54;1.42;;;0.38;;
56171;SDS011;42052;41.634;-0.946;2023-03-19T09:26:40;2.38;;;0.40;;
56171;SDS011;42052;41.634;-0.946;2023-03-19T09:29:27;1.02;;;0.32;;
56171;SDS011;42052;41.634;-0.946;2023-03-19T09:32:13;1.60;;;0.40;;
56171;SDS011;42052;41.634;-0.946;2023-03-19T09:34:59;0.60;;;0.40;;
56171;SDS011;42052;41.634;-0.946;2023-03-19T09:37:46;2.67;;;0.52;;
56171;SDS011;42052;41.634;-0.946;2023-03-19T09:43:28;1.08;;;0.30;;
56171;SDS011;42052;41.634;-0.946;2023-03-19T09:46:18;2.08;;;0.30;;
56171;SDS011;42052;41.634;-0.946;2023-03-19T09:58:09;0.50;;;0.30;;
56171;SDS011;42052;41.634;-0.946;2023-03-19T10:01:02;1.58;;;0.30;;
56171;SDS011;42052;41.634;-0.946;2023-03-19T10:13:39;0.47;;;0.20;;
56171;SDS011;42052;41.634;-0.946;2023-03-19T10:16:51;0.55;;;0.30;;
56171;SDS011;42052;41.634;-0.946;2023-03-19T10:19:42;2.45;;;0.30;;
56171;SDS011;42052;41.634;-0.946;2023-03-19T10:22:40;0.47;;;0.30;;
56171;SDS011;42052;41.634;-0.946;2023-03-19T10:25:32;0.32;;;0.20;;
56171;SDS011;42052;41.634;-0.946;2023-03-19T10:28:22;0.47;;;0.22;;
56171;SDS011;42052;41.634;-0.946;2023-03-19T10:31:21;2.05;;;0.82;;
56171;SDS011;42052;41.634;-0.946;2023-03-19T10:40:00;27.25;;;5.43;;
56171;SDS011;42052;41.634;-0.946;2023-03-19T10:43:06;24.15;;;5.25;;
56171;SDS011;42052;41.634;-0.946;2023-03-19T10:46:01;29.63;;;5.38;;
56171;SDS011;42052;41.634;-0.946;2023-03-19T10:48:48;34.45;;;5.75;;
56171;SDS011;42052;41.634;-0.946;2023-03-19T10:51:34;24.30;;;5.22;;
56171;SDS011;42052;41.634;-0.946;2023-03-19T10:54:24;29.63;;;5.15;;
56171;SDS011;42052;41.634;-0.946;2023-03-19T10:57:25;23.65;;;5.10;;
56171;SDS011;42052;41.634;-0.946;2023-03-19T11:03:25;27.98;;;5.03;;
56171;SDS011;42052;41.634;-0.946;2023-03-19T11:09:26;16.60;;;4.35;;
56171;SDS011;42052;41.634;-0.946;2023-03-19T11:12:21;20.73;;;4.65;;
56171;SDS011;42052;41.634;-0.946;2023-03-19T11:15:19;23.75;;;4.85;;
56171;SDS011;42052;41.634;-0.946;2023-03-19T11:18:18;23.77;;;5.45;;
56171;SDS011;42052;41.634;-0.946;2023-03-19T11:21:07;20.30;;;5.35;;
56171;SDS011;42052;41.634;-0.946;2023-03-19T11:24:10;22.48;;;5.47;;
56171;SDS011;42052;41.634;-0.946;2023-03-19T11:26:57;23.90;;;5.72;;
56171;SDS011;42052;41.634;-0.946;2023-03-19T11:29:44;19.65;;;4.97;;
56171;SDS011;42052;41.634;-0.946;2023-03-19T11:36:13;16.00;;;6.22;;
56171;SDS011;42052;41.634;-0.946;2023-03-19T11:54:48;16.05;;;6.72;;
56171;SDS011;42052;41.634;-0.946;2023-03-19T12:07:43;27.10;;;17.33;;
56171;SDS011;42052;41.634;-0.946;2023-03-19T12:24:20;18.95;;;12.65;;
56171;SDS011;42052;41.634;-0.946;2023-03-19T12:36:35;21.33;;;13.48;;
56171;SDS011;42052;41.634;-0.946;2023-03-19T12:39:29;25.02;;;15.90;;
56171;SDS011;42052;41.634;-0.946;2023-03-19T12:42:19;24.35;;;16.73;;
56171;SDS011;42052;41.634;-0.946;2023-03-19T12:45:30;26.33;;;17.58;;
56171;SDS011;42052;41.634;-0.946;2023-03-19T12:48:20;29.23;;;19.08;;
56171;SDS011;42052;41.634;-0.946;2023-03-19T12:51:18;31.10;;;19.50;;
56171;SDS011;42052;41.634;-0.946;2023-03-19T12:54:12;30.93;;;19.50;;
56171;SDS011;42052;41.634;-0.946;2023-03-19T13:00:51;33.45;;;21.80;;
56171;SDS011;42052;41.634;-0.946;2023-03-19T13:06:50;41.35;;;27.48;;
56171;SDS011;42052;41.634;-0.946;2023-03-19T13:12:50;47.30;;;29.67;;
56171;SDS011;42052;41.634;-0.946;2023-03-19T13:15:39;52.60;;;29.98;;
56171;SDS011;42052;41.634;-0.946;2023-03-19T13:18:35;56.30;;;32.30;;
56171;SDS011;42052;41.634;-0.946;2023-03-19T13:21:43;58.53;;;33.50;;
56171;SDS011;42052;41.634;-0.946;2023-03-19T13:24:34;67.38;;;36.85;;
56171;SDS011;42052;41.634;-0.946;2023-03-19T13:27:25;67.60;;;34.78;;
56171;SDS011;42052;41.634;-0.946;2023-03-19T13:30:16;69.78;;;36.75;;
56171;SDS011;42052;41.634;-0.946;2023-03-19T13:33:12;78.75;;;38.67;;
56171;SDS011;42052;41.634;-0.946;2023-03-19T13:36:09;82.13;;;39.58;;
56171;SDS011;42052;41.634;-0.946;2023-03-19T13:38:59;85.40;;;38.83;;
56171;SDS011;42052;41.634;-0.946;2023-03-19T13:41:49;91.10;;;40.85;;
56171;SDS011;42052;41.634;-0.946;2023-03-19T13:44:40;92.00;;;41.17;;
56171;SDS011;42052;41.634;-0.946;2023-03-19T13:47:37;96.03;;;41.85;;
56171;SDS011;42052;41.634;-0.946;2023-03-19T13:50:25;95.75;;;42.00;;
56171;SDS011;42052;41.634;-0.946;2023-03-19T13:53:21;94.90;;;40.60;;
56171;SDS011;42052;41.634;-0.946;2023-03-19T13:56:10;92.13;;;40.60;;
56171;SDS011;42052;41.634;-0.946;2023-03-19T14:07:59;103.13;;;41.95;;
56171;SDS011;42052;41.634;-0.946;2023-03-19T14:10:49;115.07;;;45.03;;
56171;SDS011;42052;41.634;-0.946;2023-03-19T14:13:40;108.40;;;42.13;;
56171;SDS011;42052;41.634;-0.946;2023-03-19T14:16:35;103.63;;;41.35;;
56171;SDS011;42052;41.634;-0.946;2023-03-19T14:19:26;100.88;;;41.38;;
56171;SDS011;42052;41.634;-0.946;2023-03-19T14:25:03;94.75;;;38.63;;
56171;SDS011;42052;41.634;-0.946;2023-03-19T14:28:00;100.10;;;39.88;;
56171;SDS011;42052;41.634;-0.946;2023-03-19T14:30:54;101.70;;;38.10;;
56171;SDS011;42052;41.634;-0.946;2023-03-19T14:33:45;108.68;;;39.00;;
56171;SDS011;42052;41.634;-0.946;2023-03-19T14:39:51;100.63;;;38.70;;
56171;SDS011;42052;41.634;-0.946;2023-03-19T14:55:48;96.28;;;36.20;;
56171;SDS011;42052;41.634;-0.946;2023-03-19T14:58:35;97.32;;;37.08;;
56171;SDS011;42052;41.634;-0.946;2023-03-19T15:01:24;96.57;;;36.75;;
56171;SDS011;42052;41.634;-0.946;2023-03-19T15:04:11;102.32;;;36.17;;
56171;SDS011;42052;41.634;-0.946;2023-03-19T15:07:00;96.43;;;36.80;;
56171;SDS011;42052;41.634;-0.946;2023-03-19T15:09:47;89.68;;;34.72;;
56171;SDS011;42052;41.634;-0.946;2023-03-19T15:12:40;85.60;;;32.65;;
56171;SDS011;42052;41.634;-0.946;2023-03-19T15:18:54;86.72;;;32.58;;
56171;SDS011;42052;41.634;-0.946;2023-03-19T15:21:40;88.78;;;32.83;;
56171;SDS011;42052;41.634;-0.946;2023-03-19T15:24:26;82.80;;;30.88;;
56171;SDS011;42052;41.634;-0.946;2023-03-19T15:27:20;82.18;;;31.70;;
56171;SDS011;42052;41.634;-0.946;2023-03-19T15:30:21;77.90;;;29.88;;
56171;SDS011;42052;41.634;-0.946;2023-03-19T15:39:17;76.35;;;27.27;;
56171;SDS011;42052;41.634;-0.946;2023-03-19T15:42:05;70.95;;;26.35;;
56171;SDS011;42052;41.634;-0.946;2023-03-19T15:44:53;69.75;;;26.00;;
56171;SDS011;42052;41.634;-0.946;2023-03-19T15:47:45;64.53;;;24.55;;
56171;SDS011;42052;41.634;-0.946;2023-03-19T15:50:38;60.20;;;22.80;;
56171;SDS011;42052;41.634;-0.946;2023-03-19T15:53:29;60.63;;;22.98;;
56171;SDS011;42052;41.634;-0.946;2023-03-19T15:56:17;55.80;;;21.17;;
56171;SDS011;42052;41.634;-0.946;2023-03-19T15:59:05;58.17;;;20.42;;
56171;SDS011;42052;41.634;-0.946;2023-03-19T16:01:51;53.60;;;20.92;;
56171;SDS011;42052;41.634;-0.946;2023-03-19T16:04:43;53.03;;;20.00;;
56171;SDS011;42052;41.634;-0.946;2023-03-19T16:10:36;52.88;;;20.48;;
56171;SDS011;42052;41.634;-0.946;2023-03-19T16:19:03;39.40;;;14.95;;
56171;SDS011;42052;41.634;-0.946;2023-03-19T16:21:50;39.50;;;15.07;;
56171;SDS011;42052;41.634;-0.946;2023-03-19T16:24:36;37.42;;;15.38;;
56171;SDS011;42052;41.634;-0.946;2023-03-19T16:27:37;40.72;;;14.95;;
56171;SDS011;42052;41.634;-0.946;2023-03-19T16:30:25;34.35;;;13.32;;
56171;SDS011;42052;41.634;-0.946;2023-03-19T16:33:12;35.00;;;13.20;;
56171;SDS011;42052;41.634;-0.946;2023-03-19T16:35:59;28.40;;;11.95;;
56171;SDS011;42052;41.634;-0.946;2023-03-19T16:38:57;30.73;;;12.20;;
56171;SDS011;42052;41.634;-0.946;2023-03-19T16:48:03;44.15;;;18.98;;
56171;SDS011;42052;41.634;-0.946;2023-03-19T16:50:49;37.75;;;16.75;;
56171;SDS011;42052;41.634;-0.946;2023-03-19T16:53:35;31.70;;;12.43;;
56171;SDS011;42052;41.634;-0.946;2023-03-19T16:56:21;28.42;;;11.45;;
56171;SDS011;42052;41.634;-0.946;2023-03-19T16:59:21;26.20;;;10.80;;
56171;SDS011;42052;41.634;-0.946;2023-03-19T17:02:13;25.63;;;9.43;;
56171;SDS011;42052;41.634;-0.946;2023-03-19T17:05:00;23.33;;;9.38;;
56171;SDS011;42052;41.634;-0.946;2023-03-19T17:07:47;29.40;;;12.48;;
56171;SDS011;42052;41.634;-0.946;2023-03-19T17:10:34;38.97;;;17.02;;
56171;SDS011;42052;41.634;-0.946;2023-03-19T17:13:24;23.45;;;10.32;;
56171;SDS011;42052;41.634;-0.946;2023-03-19T17:16:14;20.02;;;8.60;;
56171;SDS011;42052;41.634;-0.946;2023-03-19T17:19:00;24.20;;;10.20;;
56171;SDS011;42052;41.634;-0.946;2023-03-19T17:21:47;37.53;;;16.00;;
56171;SDS011;42052;41.634;-0.946;2023-03-19T17:24:35;26.98;;;12.40;;
56171;SDS011;42052;41.634;-0.946;2023-03-19T17:27:21;22.08;;;9.27;;
56171;SDS011;42052;41.634;-0.946;2023-03-19T17:30:08;19.67;;;8.07;;
56171;SDS011;42052;41.634;-0.946;2023-03-19T17:32:55;26.95;;;11.95;;
56171;SDS011;42052;41.634;-0.946;2023-03-19T17:35:41;33.40;;;15.13;;
56171;SDS011;42052;41.634;-0.946;2023-03-19T17:38:30;38.15;;;17.23;;
56171;SDS011;42052;41.634;-0.946;2023-03-19T17:41:18;40.70;;;17.30;;
56171;SDS011;42052;41.634;-0.946;2023-03-19T17:44:04;39.67;;;17.23;;
56171;SDS011;42052;41.634;-0.946;2023-03-19T17:46:51;40.85;;;16.98;;
56171;SDS011;42052;41.634;-0.946;2023-03-19T17:49:38;39.15;;;18.05;;
56171;SDS011;42052;41.634;-0.946;2023-03-19T17:52:26;47.05;;;19.08;;
56171;SDS011;42052;41.634;-0.946;2023-03-19T17:55:15;26.77;;;11.70;;
56171;SDS011;42052;41.634;-0.946;2023-03-19T17:58:03;18.70;;;8.70;;
56171;SDS011;42052;41.634;-0.946;2023-03-19T18:00:51;18.20;;;8.27;;
56171;SDS011;42052;41.634;-0.946;2023-03-19T18:03:37;32.03;;;14.30;;
56171;SDS011;42052;41.634;-0.946;2023-03-19T18:06:24;32.55;;;15.95;;
56171;SDS011;42052;41.634;-0.946;2023-03-19T18:09:33;31.88;;;14.43;;
56171;SDS011;42052;41.634;-0.946;2023-03-19T18:12:19;40.03;;;15.85;;
56171;SDS011;42052;41.634;-0.946;2023-03-19T18:15:05;33.70;;;15.55;;
56171;SDS011;42052;41.634;-0.946;2023-03-19T18:17:53;33.55;;;15.35;;
56171;SDS011;42052;41.634;-0.946;2023-03-19T18:20:41;41.05;;;15.07;;
56171;SDS011;42052;41.634;-0.946;2023-03-19T18:23:27;38.78;;;16.17;;
56171;SDS011;42052;41.634;-0.946;2023-03-19T18:26:13;35.33;;;15.98;;
56171;SDS011;42052;41.634;-0.946;2023-03-19T18:29:01;38.13;;;15.68;;
56171;SDS011;42052;41.634;-0.946;2023-03-19T18:31:48;35.83;;;15.85;;
56171;SDS011;42052;41.634;-0.946;2023-03-19T18:34:35;36.67;;;17.35;;
56171;SDS011;42052;41.634;-0.946;2023-03-19T18:37:21;34.22;;;15.43;;
56171;SDS011;42052;41.634;-0.946;2023-03-19T18:40:11;38.90;;;15.77;;
56171;SDS011;42052;41.634;-0.946;2023-03-19T18:42:59;35.83;;;15.27;;
56171;SDS011;42052;41.634;-0.946;2023-03-19T18:45:47;24.35;;;12.00;;
56171;SDS011;42052;41.634;-0.946;2023-03-19T18:48:35;18.85;;;8.73;;
56171;SDS011;42052;41.634;-0.946;2023-03-19T18:51:21;18.58;;;8.93;;
56171;SDS011;42052;41.634;-0.946;2023-03-19T18:54:08;32.97;;;14.93;;
56171;SDS011;42052;41.634;-0.946;2023-03-19T18:56:56;29.38;;;14.13;;
56171;SDS011;42052;41.634;-0.946;2023-03-19T18:59:43;27.17;;;13.30;;
56171;SDS011;42052;41.634;-0.946;2023-03-19T19:02:31;26.95;;;13.00;;